createdAt,value
2023-05-21T00:01:25.705Z,3.30
2023-05-21T00:03:52.619Z,3.15
2023-05-21T00:06:20.836Z,3.38
2023-05-21T00:08:47.628Z,3.33
2023-05-21T00:11:14.329Z,3.47
2023-05-21T00:13:40.987Z,3.13
2023-05-21T00:16:07.816Z,3.22
2023-05-21T00:18:34.420Z,3.20
2023-05-21T00:21:01.755Z,3.58
2023-05-21T00:23:28.568Z,3.17
2023-05-21T00:25:55.117Z,3.20
2023-05-21T00:28:21.720Z,3.75
2023-05-21T00:30:48.234Z,3.67
2023-05-21T00:33:14.923Z,3.63
2023-05-21T00:35:41.665Z,3.20
2023-05-21T00:38:08.559Z,3.60
2023-05-21T00:40:36.267Z,3.63
2023-05-21T00:43:03.343Z,3.95
2023-05-21T00:45:30.119Z,3.55
2023-05-21T00:47:56.775Z,3.70
2023-05-21T00:50:26.295Z,3.50
2023-05-21T00:52:53.295Z,3.97
2023-05-21T00:55:19.993Z,4.28
2023-05-21T00:57:46.657Z,3.97
2023-05-21T01:00:14.505Z,4.10
2023-05-21T01:02:42.084Z,3.97
2023-05-21T01:05:09.731Z,4.32
2023-05-21T01:07:38.942Z,4.13
2023-05-21T01:10:08.451Z,3.90
2023-05-21T01:12:36.158Z,3.88
2023-05-21T01:15:04.205Z,3.78
2023-05-21T01:17:31.780Z,3.95
2023-05-21T01:19:59.055Z,3.95
2023-05-21T01:22:28.513Z,4.47
2023-05-21T01:24:55.605Z,3.85
2023-05-21T01:27:22.747Z,3.75
2023-05-21T01:29:50.085Z,3.92
2023-05-21T01:32:52.047Z,4.38
2023-05-21T01:35:33.725Z,4.03
2023-05-21T01:38:24.696Z,4.32
2023-05-21T01:41:03.880Z,4.03
2023-05-21T01:43:36.979Z,4.20
2023-05-21T01:46:05.305Z,4.20
2023-05-21T01:48:34.670Z,4.57
2023-05-21T01:51:03.671Z,4.68
2023-05-21T01:53:30.537Z,4.32
2023-05-21T01:55:57.111Z,3.97
2023-05-21T01:58:24.252Z,4.38
2023-05-21T02:00:51.175Z,4.28
2023-05-21T02:03:20.699Z,4.70
2023-05-21T02:05:47.555Z,4.70
2023-05-21T02:08:15.597Z,5.05
2023-05-21T02:10:42.224Z,4.82
2023-05-21T02:13:08.792Z,4.70
2023-05-21T02:15:35.688Z,4.78
2023-05-21T02:18:03.478Z,4.45
2023-05-21T02:20:31.063Z,4.55
2023-05-21T02:22:57.599Z,5.13
2023-05-21T02:25:24.153Z,5.20
2023-05-21T02:27:53.479Z,4.60
2023-05-21T02:30:20.836Z,4.70
2023-05-21T02:32:48.909Z,4.85
2023-05-21T02:35:16.212Z,4.82
2023-05-21T02:37:44.224Z,4.60
2023-05-21T02:40:12.024Z,5.35
2023-05-21T02:42:41.267Z,5.00
2023-05-21T02:45:11.879Z,5.35
2023-05-21T02:47:41.367Z,4.87
2023-05-21T02:50:09.202Z,4.88
2023-05-21T02:52:43.108Z,5.00
2023-05-21T02:55:09.751Z,4.60
2023-05-21T02:57:36.273Z,4.75
2023-05-21T03:00:05.934Z,4.78
2023-05-21T03:02:33.362Z,4.57
2023-05-21T03:05:00.676Z,4.85
2023-05-21T03:07:27.255Z,4.82
2023-05-21T03:09:53.965Z,5.13
2023-05-21T03:12:20.634Z,4.93
2023-05-21T03:14:49.352Z,4.85
2023-05-21T03:17:16.998Z,5.18
2023-05-21T03:19:44.243Z,5.30
2023-05-21T03:22:14.154Z,5.07
2023-05-21T03:24:41.357Z,4.80
2023-05-21T03:27:08.858Z,4.82
2023-05-21T03:29:36.191Z,4.93
2023-05-21T03:32:03.422Z,5.03
2023-05-21T03:34:34.393Z,5.05
2023-05-21T03:37:01.289Z,4.63
2023-05-21T03:39:28.518Z,4.63
2023-05-21T03:41:56.360Z,5.00
2023-05-21T03:44:32.802Z,5.20
2023-05-21T03:47:17.192Z,4.85
2023-05-21T03:49:43.998Z,5.15
2023-05-21T03:52:10.842Z,5.15
2023-05-21T03:54:37.497Z,4.88
2023-05-21T03:57:07.414Z,4.70
2023-05-21T03:59:34.496Z,4.72
2023-05-21T04:02:01.280Z,5.03
2023-05-21T04:04:29.490Z,4.70
2023-05-21T04:06:56.141Z,5.25
2023-05-21T04:09:23.195Z,4.90
2023-05-21T04:11:51.964Z,4.88
2023-05-21T04:14:18.587Z,5.00
2023-05-21T04:16:45.158Z,5.40
2023-05-21T04:19:11.745Z,4.75
2023-05-21T04:21:38.345Z,4.57
2023-05-21T04:24:05.790Z,4.53
2023-05-21T04:26:48.564Z,5.00
2023-05-21T04:29:21.291Z,5.00
2023-05-21T04:31:49.837Z,4.70
2023-05-21T04:34:19.888Z,4.85
2023-05-21T04:36:46.559Z,4.60
2023-05-21T04:39:14.672Z,4.55
2023-05-21T04:41:41.378Z,4.78
2023-05-21T04:44:08.771Z,4.85
2023-05-21T04:46:35.894Z,5.32
2023-05-21T04:49:05.948Z,6.72
2023-05-21T04:51:32.552Z,4.63
2023-05-21T04:53:59.687Z,4.60
2023-05-21T04:56:29.574Z,4.80
2023-05-21T04:58:58.687Z,4.90
2023-05-21T05:01:27.143Z,4.78
2023-05-21T05:03:54.080Z,4.68
2023-05-21T05:06:21.419Z,5.10
2023-05-21T05:08:48.248Z,4.80
2023-05-21T05:11:15.879Z,4.53
2023-05-21T05:13:42.493Z,4.72
2023-05-21T05:16:09.468Z,4.60
2023-05-21T05:18:36.761Z,4.95
2023-05-21T05:21:03.697Z,5.05
2023-05-21T05:23:30.610Z,4.55
2023-05-21T05:25:57.227Z,4.88
2023-05-21T05:28:23.811Z,5.15
2023-05-21T05:30:50.465Z,5.18
2023-05-21T05:33:23.054Z,4.78
2023-05-21T05:35:49.641Z,5.35
2023-05-21T05:38:16.957Z,5.13
2023-05-21T05:40:43.610Z,5.28
2023-05-21T05:43:10.185Z,5.05
2023-05-21T05:45:36.981Z,5.40
2023-05-21T05:48:10.001Z,5.00
2023-05-21T05:50:36.662Z,5.32
2023-05-21T05:53:03.331Z,5.00
2023-05-21T05:55:29.844Z,5.35
2023-05-21T05:57:56.384Z,5.00
2023-05-21T06:00:23.022Z,5.53
2023-05-21T06:02:50.964Z,5.65
2023-05-21T06:05:17.792Z,5.43
2023-05-21T06:07:44.405Z,5.03
2023-05-21T06:10:11.037Z,5.50
2023-05-21T06:12:37.708Z,5.88
2023-05-21T06:15:06.100Z,6.00
2023-05-21T06:17:33.151Z,5.65
2023-05-21T06:20:00.328Z,5.50
2023-05-21T06:22:27.673Z,5.30
2023-05-21T06:24:55.089Z,5.13
2023-05-21T06:27:21.574Z,5.60
2023-05-21T06:29:49.143Z,5.55
2023-05-21T06:32:15.762Z,5.55
2023-05-21T06:34:42.372Z,5.20
2023-05-21T06:37:08.976Z,5.95
2023-05-21T06:39:35.523Z,5.13
2023-05-21T06:42:03.007Z,5.95
2023-05-21T06:44:44.333Z,5.50
2023-05-21T06:47:17.423Z,5.88
2023-05-21T06:49:44.057Z,5.72
2023-05-21T06:52:11.204Z,5.97
2023-05-21T06:54:38.266Z,5.80
2023-05-21T06:57:05.968Z,6.10
2023-05-21T06:59:32.546Z,5.57
2023-05-21T07:02:01.015Z,5.75
2023-05-21T07:04:28.930Z,6.18
2023-05-21T07:06:55.417Z,5.72
2023-05-21T07:09:23.129Z,5.63
2023-05-21T07:11:49.907Z,6.18
2023-05-21T07:14:17.027Z,6.25
2023-05-21T07:16:43.535Z,5.53
2023-05-21T07:19:10.431Z,6.38
2023-05-21T07:21:37.459Z,5.50
2023-05-21T07:24:06.343Z,5.88
2023-05-21T07:26:32.868Z,6.20
2023-05-21T07:28:59.428Z,6.07
2023-05-21T07:31:26.736Z,5.70
2023-05-21T07:33:53.322Z,5.70
2023-05-21T07:36:24.224Z,5.95
2023-05-21T07:38:51.136Z,6.47
2023-05-21T07:41:18.802Z,6.20
2023-05-21T07:43:46.495Z,5.78
2023-05-21T07:46:14.041Z,5.85
2023-05-21T07:48:42.048Z,6.43
2023-05-21T07:51:09.905Z,5.65
2023-05-21T07:53:36.538Z,6.07
2023-05-21T07:56:06.943Z,6.20
2023-05-21T07:58:35.245Z,5.55
2023-05-21T08:01:02.797Z,5.75
2023-05-21T08:03:30.879Z,5.72
2023-05-21T08:05:57.686Z,5.90
2023-05-21T08:08:24.245Z,5.47
2023-05-21T08:10:53.210Z,5.82
2023-05-21T08:13:21.737Z,5.63
2023-05-21T08:15:52.079Z,5.47
2023-05-21T08:18:20.588Z,5.32
2023-05-21T08:20:48.279Z,5.85
2023-05-21T08:23:16.544Z,5.85
2023-05-21T08:25:48.918Z,5.82
2023-05-21T08:28:15.745Z,5.70
2023-05-21T08:30:42.240Z,5.90
2023-05-21T08:33:08.920Z,5.75
2023-05-21T08:35:35.906Z,5.68
2023-05-21T08:38:18.481Z,6.20
2023-05-21T08:40:56.179Z,5.80
2023-05-21T08:43:27.217Z,5.65
2023-05-21T08:45:55.427Z,5.60
2023-05-21T08:48:25.532Z,6.15
2023-05-21T08:50:53.757Z,5.88
2023-05-21T08:53:28.972Z,5.88
2023-05-21T08:55:57.396Z,6.25
2023-05-21T08:58:33.545Z,5.78
2023-05-21T09:01:00.459Z,6.03
2023-05-21T09:03:29.436Z,5.68
2023-05-21T09:05:57.416Z,5.32
2023-05-21T09:08:35.017Z,6.10
2023-05-21T09:11:05.629Z,6.47
2023-05-21T09:13:40.178Z,5.90
2023-05-21T09:16:13.237Z,6.20
2023-05-21T09:18:39.886Z,5.47
2023-05-21T09:21:31.809Z,5.55
2023-05-21T09:24:03.921Z,5.65
2023-05-21T09:26:30.615Z,5.50
2023-05-21T09:29:01.795Z,5.80
2023-05-21T09:31:29.557Z,5.43
2023-05-21T09:33:56.238Z,5.65
2023-05-21T09:36:24.782Z,5.50
2023-05-21T09:38:54.173Z,5.57
2023-05-21T09:41:30.874Z,5.90
2023-05-21T09:44:02.302Z,6.30
2023-05-21T09:46:38.584Z,5.70
2023-05-21T09:49:06.189Z,5.57
2023-05-21T09:51:32.972Z,15.07
2023-05-21T09:53:59.440Z,5.90
2023-05-21T09:56:31.732Z,5.57
2023-05-21T09:59:06.700Z,5.40
2023-05-21T10:01:34.509Z,5.85
2023-05-21T10:04:06.505Z,5.80
2023-05-21T10:06:37.506Z,5.63
2023-05-21T10:09:09.967Z,5.82
2023-05-21T10:11:37.292Z,5.80
2023-05-21T10:14:09.086Z,6.05
2023-05-21T10:16:37.257Z,5.68
2023-05-21T10:19:05.256Z,5.97
2023-05-21T10:21:33.397Z,5.65
2023-05-21T10:24:02.727Z,5.88
2023-05-21T10:26:30.433Z,5.93
2023-05-21T10:29:00.198Z,5.97
2023-05-21T10:31:27.853Z,5.53
2023-05-21T10:33:55.405Z,5.50
2023-05-21T10:36:23.749Z,5.50
2023-05-21T10:38:50.326Z,6.63
2023-05-21T10:41:19.982Z,5.43
2023-05-21T10:44:06.714Z,5.97
2023-05-21T10:46:53.319Z,5.20
2023-05-21T10:49:33.975Z,6.18
2023-05-21T10:52:39.765Z,5.43
2023-05-21T10:55:24.821Z,6.75
2023-05-21T10:57:56.974Z,6.45
2023-05-21T11:00:26.775Z,6.55
2023-05-21T11:02:53.892Z,5.80
2023-05-21T11:05:42.779Z,6.18
2023-05-21T11:08:25.543Z,5.70
2023-05-21T11:10:58.200Z,5.60
2023-05-21T11:13:31.401Z,6.43
2023-05-21T11:15:57.910Z,6.95
2023-05-21T11:18:44.361Z,6.45
2023-05-21T11:21:13.829Z,6.80
2023-05-21T11:24:01.299Z,6.70
2023-05-21T11:26:29.834Z,6.68
2023-05-21T11:29:05.448Z,6.53
2023-05-21T11:31:38.077Z,7.28
2023-05-21T11:34:10.938Z,6.95
2023-05-21T11:36:38.186Z,7.15
2023-05-21T11:39:21.913Z,7.20
2023-05-21T11:41:59.796Z,6.22
2023-05-21T11:44:42.619Z,6.70
2023-05-21T11:47:11.083Z,6.35
2023-05-21T11:49:38.843Z,6.43
2023-05-21T11:52:07.108Z,7.03
2023-05-21T11:54:38.403Z,7.30
2023-05-21T11:57:08.557Z,7.50
2023-05-21T11:59:35.765Z,6.57
2023-05-21T12:02:03.720Z,6.93
2023-05-21T12:04:31.115Z,7.10
2023-05-21T12:07:00.415Z,8.25
2023-05-21T12:09:26.888Z,7.57
2023-05-21T12:11:53.549Z,7.70
2023-05-21T12:14:21.484Z,6.95
2023-05-21T12:16:48.059Z,7.50
2023-05-21T12:19:17.698Z,8.05
2023-05-21T12:21:44.257Z,7.90
2023-05-21T12:24:11.058Z,7.78
2023-05-21T12:26:37.641Z,8.02
2023-05-21T12:29:04.727Z,7.05
2023-05-21T12:31:32.765Z,7.38
2023-05-21T12:33:59.676Z,8.00
2023-05-21T12:36:29.419Z,7.70
2023-05-21T12:38:57.583Z,7.88
2023-05-21T12:41:24.116Z,8.40
2023-05-21T12:43:51.328Z,7.50
2023-05-21T12:46:18.950Z,7.80
2023-05-21T12:48:57.857Z,9.32
2023-05-21T12:51:24.465Z,7.72
2023-05-21T12:53:51.558Z,9.00
2023-05-21T12:56:18.085Z,8.15
2023-05-21T12:58:50.493Z,8.48
2023-05-21T13:01:17.063Z,9.07
2023-05-21T13:03:45.005Z,8.77
2023-05-21T13:06:11.484Z,8.85
2023-05-21T13:08:38.161Z,8.18
2023-05-21T13:11:04.817Z,8.45
2023-05-21T13:13:31.523Z,8.05
2023-05-21T13:16:00.556Z,8.43
2023-05-21T13:18:27.175Z,8.65
2023-05-21T13:20:53.820Z,8.88
2023-05-21T13:23:20.449Z,8.77
2023-05-21T13:25:46.892Z,8.55
2023-05-21T13:28:15.287Z,8.60
2023-05-21T13:30:41.828Z,8.70
2023-05-21T13:33:08.499Z,9.35
2023-05-21T13:35:35.266Z,8.13
2023-05-21T13:38:02.061Z,8.85
2023-05-21T13:40:28.953Z,8.90
2023-05-21T13:42:55.495Z,8.60
2023-05-21T13:45:24.249Z,8.00
2023-05-21T13:47:50.984Z,8.63
2023-05-21T13:50:17.709Z,8.27
2023-05-21T13:52:44.357Z,8.40
2023-05-21T13:55:11.066Z,8.55
2023-05-21T13:57:37.678Z,8.65
2023-05-21T14:00:04.815Z,9.02
2023-05-21T14:02:34.662Z,8.88
2023-05-21T14:05:01.402Z,8.55
2023-05-21T14:07:27.864Z,8.23
2023-05-21T14:09:54.527Z,8.60
2023-05-21T14:12:21.707Z,8.05
2023-05-21T14:14:49.836Z,8.57
2023-05-21T14:17:16.436Z,9.20
2023-05-21T14:19:42.943Z,8.07
2023-05-21T14:22:09.461Z,8.55
2023-05-21T14:24:35.902Z,8.90
2023-05-21T14:27:02.464Z,8.90
2023-05-21T14:29:28.941Z,7.75
2023-05-21T14:31:55.498Z,8.75
2023-05-21T14:34:22.038Z,8.40
2023-05-21T14:36:48.611Z,8.43
2023-05-21T14:39:15.396Z,8.00
2023-05-21T14:41:41.864Z,9.07
2023-05-21T14:44:08.445Z,8.68
2023-05-21T14:46:35.025Z,8.88
2023-05-21T14:49:01.704Z,6.35
2023-05-21T14:51:28.243Z,6.47
2023-05-21T14:53:56.974Z,5.78
2023-05-21T14:56:26.728Z,6.90
2023-05-21T14:58:53.591Z,5.88
2023-05-21T15:01:20.307Z,5.45
2023-05-21T15:03:46.873Z,5.28
2023-05-21T15:06:13.891Z,5.80
2023-05-21T15:08:40.534Z,6.25
2023-05-21T15:11:09.897Z,6.63
2023-05-21T15:13:36.669Z,6.18
2023-05-21T15:16:03.480Z,7.55
2023-05-21T15:18:30.109Z,7.63
2023-05-21T15:20:56.657Z,6.75
2023-05-21T15:23:23.213Z,6.35
2023-05-21T15:25:49.820Z,6.13
2023-05-21T15:28:16.948Z,7.28
2023-05-21T15:30:43.577Z,6.82
2023-05-21T15:33:11.065Z,6.38
2023-05-21T15:35:38.079Z,7.35
2023-05-21T15:38:04.954Z,6.18
2023-05-21T15:40:32.864Z,5.75
2023-05-21T15:42:59.536Z,6.20
2023-05-21T15:45:26.235Z,6.32
2023-05-21T15:47:52.960Z,5.97
2023-05-21T15:50:19.490Z,5.78
2023-05-21T15:52:45.944Z,6.18
2023-05-21T15:55:13.883Z,5.88
2023-05-21T15:57:40.425Z,6.40
2023-05-21T16:00:08.145Z,6.03
2023-05-21T16:02:35.566Z,5.85
2023-05-21T16:05:02.256Z,6.43
2023-05-21T16:07:28.801Z,6.53
2023-05-21T16:09:55.297Z,6.72
2023-05-21T16:12:21.827Z,5.97
2023-05-21T16:14:50.025Z,6.35
2023-05-21T16:17:17.067Z,5.82
2023-05-21T16:19:43.712Z,6.78
2023-05-21T16:22:10.949Z,6.15
2023-05-21T16:24:37.781Z,6.25
2023-05-21T16:27:04.911Z,5.28
2023-05-21T16:29:31.647Z,5.50
2023-05-21T16:31:58.120Z,6.05
2023-05-21T16:34:24.666Z,6.07
2023-05-21T16:36:51.780Z,5.72
2023-05-21T16:39:18.466Z,5.63
2023-05-21T16:41:45.049Z,5.63
2023-05-21T16:44:11.647Z,5.53
2023-05-21T16:46:38.307Z,5.93
2023-05-21T16:49:05.260Z,6.40
2023-05-21T16:51:34.220Z,5.95
2023-05-21T16:54:02.335Z,6.78
2023-05-21T16:56:28.770Z,7.38
2023-05-21T16:58:55.278Z,6.07
2023-05-21T17:01:21.812Z,6.90
2023-05-21T17:03:48.523Z,6.38
2023-05-21T17:06:15.249Z,5.70
2023-05-21T17:08:42.650Z,6.68
2023-05-21T17:11:09.384Z,5.55
2023-05-21T17:13:35.878Z,6.10
2023-05-21T17:16:02.401Z,5.85
2023-05-21T17:18:28.910Z,6.63
2023-05-21T17:20:56.385Z,5.85
2023-05-21T17:23:23.075Z,6.88
2023-05-21T17:25:49.617Z,6.68
2023-05-21T17:28:16.070Z,7.32
2023-05-21T17:30:42.998Z,6.93
2023-05-21T17:33:10.474Z,6.70
2023-05-21T17:35:37.447Z,6.72
2023-05-21T17:38:04.331Z,6.75
2023-05-21T17:40:30.928Z,7.13
2023-05-21T17:42:57.464Z,7.85
2023-05-21T17:45:23.919Z,7.60
2023-05-21T17:47:50.750Z,7.50
2023-05-21T17:50:17.361Z,7.38
2023-05-21T17:52:43.835Z,9.30
2023-05-21T17:55:10.526Z,8.05
2023-05-21T17:57:37.040Z,8.05
2023-05-21T18:00:05.144Z,8.25
2023-05-21T18:02:38.535Z,8.13
2023-05-21T18:05:05.435Z,8.38
2023-05-21T18:07:32.040Z,8.77
2023-05-21T18:09:58.536Z,9.40
2023-05-21T18:12:25.036Z,7.95
2023-05-21T18:14:51.470Z,8.57
2023-05-21T18:17:18.027Z,8.48
2023-05-21T18:19:44.498Z,9.20
2023-05-21T18:22:11.110Z,9.93
2023-05-21T18:24:38.221Z,9.50
2023-05-21T18:27:04.864Z,9.38
2023-05-21T18:29:31.624Z,9.27
2023-05-21T18:31:58.227Z,9.23
2023-05-21T18:34:24.780Z,9.77
2023-05-21T18:36:51.257Z,9.63
2023-05-21T18:39:17.817Z,9.10
2023-05-21T18:41:44.321Z,9.35
2023-05-21T18:44:10.981Z,10.68
2023-05-21T18:46:37.835Z,10.32
2023-05-21T18:49:04.979Z,10.30
2023-05-21T18:51:31.791Z,10.18
2023-05-21T18:53:58.671Z,9.93
2023-05-21T18:56:25.858Z,11.30
2023-05-21T18:58:52.452Z,10.80
2023-05-21T19:01:19.076Z,10.77
2023-05-21T19:03:45.663Z,11.23
2023-05-21T19:06:12.192Z,11.45
2023-05-21T19:08:40.414Z,12.25
2023-05-21T19:11:07.370Z,11.65
2023-05-21T19:13:34.183Z,12.68
2023-05-21T19:16:01.965Z,11.75
2023-05-21T19:18:31.582Z,11.98
2023-05-21T19:21:00.115Z,12.18
2023-05-21T19:23:26.726Z,12.48
2023-05-21T19:25:53.257Z,12.35
2023-05-21T19:28:20.082Z,12.50
2023-05-21T19:30:46.620Z,11.90
2023-05-21T19:33:13.562Z,11.98
2023-05-21T19:35:41.842Z,12.85
2023-05-21T19:38:10.780Z,12.43
2023-05-21T19:40:37.531Z,12.38
2023-05-21T19:43:04.453Z,11.55
2023-05-21T19:45:30.936Z,13.45
2023-05-21T19:47:59.008Z,12.55
2023-05-21T19:50:28.339Z,15.43
2023-05-21T19:52:57.004Z,21.85
2023-05-21T19:55:24.461Z,16.50
2023-05-21T19:57:51.021Z,18.20
2023-05-21T20:00:18.274Z,18.17
2023-05-21T20:02:46.221Z,19.52
2023-05-21T20:05:12.953Z,15.73
2023-05-21T20:07:39.647Z,14.63
2023-05-21T20:10:07.033Z,12.70
2023-05-21T20:12:33.576Z,14.32
2023-05-21T20:15:00.824Z,13.23
2023-05-21T20:17:28.565Z,11.95
2023-05-21T20:19:57.249Z,11.65
2023-05-21T20:22:23.966Z,11.82
2023-05-21T20:24:50.638Z,11.77
2023-05-21T20:27:19.442Z,11.68
2023-05-21T20:29:46.204Z,11.50
2023-05-21T20:32:13.183Z,12.80
2023-05-21T20:34:50.720Z,11.05
2023-05-21T20:37:28.283Z,11.85
2023-05-21T20:39:57.661Z,11.93
2023-05-21T20:42:28.359Z,10.93
2023-05-21T20:44:55.457Z,12.10
2023-05-21T20:47:23.435Z,11.88
2023-05-21T20:49:53.696Z,11.57
2023-05-21T20:52:20.755Z,11.90
2023-05-21T20:54:48.779Z,11.60
2023-05-21T20:57:15.457Z,13.25
2023-05-21T20:59:42.249Z,12.52
2023-05-21T21:02:13.721Z,11.73
2023-05-21T21:04:42.096Z,12.30
2023-05-21T21:07:09.990Z,12.52
2023-05-21T21:09:38.604Z,12.00
2023-05-21T21:12:21.257Z,12.93
2023-05-21T21:14:51.554Z,12.32
2023-05-21T21:17:18.034Z,11.95
2023-05-21T21:19:44.528Z,12.57
2023-05-21T21:22:11.165Z,12.35
2023-05-21T21:24:37.711Z,12.13
2023-05-21T21:27:04.528Z,12.45
2023-05-21T21:29:30.999Z,13.38
2023-05-21T21:31:57.571Z,12.73
2023-05-21T21:34:25.170Z,13.20
2023-05-21T21:36:51.727Z,13.10
2023-05-21T21:39:18.200Z,13.00
2023-05-21T21:41:44.801Z,12.82
2023-05-21T21:44:11.402Z,13.93
2023-05-21T21:46:37.906Z,12.82
2023-05-21T21:49:04.439Z,12.57
2023-05-21T21:51:30.976Z,13.85
2023-05-21T21:53:57.447Z,13.20
2023-05-21T21:56:23.943Z,13.60
2023-05-21T21:58:50.573Z,13.35
2023-05-21T22:01:17.631Z,13.95
2023-05-21T22:03:44.207Z,13.93
2023-05-21T22:06:10.905Z,14.23
2023-05-21T22:08:37.438Z,13.75
2023-05-21T22:11:03.983Z,13.43
2023-05-21T22:13:30.454Z,13.18
2023-05-21T22:15:57.369Z,14.43
2023-05-21T22:18:38.899Z,13.15
2023-05-21T22:21:09.582Z,13.23
2023-05-21T22:23:37.161Z,14.13
2023-05-21T22:26:03.792Z,13.70
2023-05-21T22:28:30.440Z,14.07
2023-05-21T22:30:57.270Z,14.02
2023-05-21T22:33:24.382Z,14.98
2023-05-21T22:35:50.960Z,13.70
2023-05-21T22:38:17.911Z,14.43
2023-05-21T22:40:44.476Z,14.40
2023-05-21T22:43:11.119Z,14.85
2023-05-21T22:45:38.434Z,14.63
2023-05-21T22:48:07.356Z,14.82
2023-05-21T22:50:34.024Z,14.68
2023-05-21T22:53:00.706Z,15.85
2023-05-21T22:55:27.275Z,15.05
2023-05-21T22:57:53.790Z,15.57
2023-05-21T23:00:20.484Z,14.55
2023-05-21T23:02:47.906Z,14.77
2023-05-21T23:05:15.010Z,14.93
2023-05-21T23:07:41.944Z,15.30
2023-05-21T23:10:09.226Z,15.63
2023-05-21T23:12:36.897Z,16.48
2023-05-21T23:15:05.519Z,15.25
2023-05-21T23:17:32.086Z,15.25
2023-05-21T23:19:59.300Z,16.15
2023-05-21T23:22:26.236Z,15.20
2023-05-21T23:24:54.092Z,16.15
2023-05-21T23:27:20.784Z,15.23
2023-05-21T23:29:47.245Z,15.75
2023-05-21T23:32:13.876Z,15.95
2023-05-21T23:34:40.325Z,16.45
2023-05-21T23:37:06.878Z,15.70
2023-05-21T23:39:33.380Z,16.40
2023-05-21T23:42:00.027Z,17.58
2023-05-21T23:44:26.496Z,16.98
2023-05-21T23:46:53.029Z,16.75
2023-05-21T23:49:19.508Z,15.82
2023-05-21T23:51:46.734Z,17.63
2023-05-21T23:54:13.264Z,17.50
2023-05-21T23:56:39.830Z,17.23
2023-05-21T23:59:06.498Z,17.25
